4M0 weather

Lake Ann Airway Estates Airport
Traverse City, Michigan, United States

Public forecast

Using degrees Fahrenheit for public forecast. Weather courtesy of forecast.io.

Closest aviation weather report (METAR) to Lake Ann Airway Estates Airport

Closest report is Frankfort Dow Memorial Field, 13.0 nm (24.1 km) WSW. Retrieved 2019/10/17 11:35 UTC (0 seconds ago):

KFKS 171135Z AUTO 34004KT 10SM SCT028 BKN035 OVC041 10/03 A2993 RMK AO2 T00960025

Closest aviation forecast (TAF) to Lake Ann Airway Estates Airport

Closest forecast is Cherry Capital Airport, 14.4 nm (26.6 km) E. Retrieved 2019/10/17 06:18 UTC (5 hours ago):

TAF KTVC 170615Z 1706/1806 33012G23KT P6SM VCSH OVC045 FM170800 33010G17KT P6SM -SHRA OVC035 FM171500 34010G19KT P6SM BKN035 FM180000 31005KT P6SM BKN035 FM180500 VRB03KT P6SM SCT035